Time;durP1;ratioP1;P1;durP2;ratioP2;P2;SDS_P1;SDS_P2;PMS_P1;PMS_P2;Temp;Humidity;BMP_temperature;BMP_pressure;BME280_temperature;BME280_humidity;BME280_pressure;Samples;Min_cycle;Max_cycle;Signal;HPM_P1;HPM_P2
2022/04/04 00:01:01;;;;;;;15.93;9.32;;;;;;;-2.07;81.64;100757.06;4517873;31;20446;-71
2022/04/04 00:03:29;;;;;;;15.40;8.77;;;;;;;-2.12;81.52;100763.72;4517934;31;20107;-71
2022/04/04 00:05:57;;;;;;;15.02;8.15;;;;;;;-2.23;81.06;100768.38;4517656;31;20868;-71
2022/04/04 00:08:24;;;;;;;16.17;9.07;;;;;;;-2.29;81.45;100768.13;4517650;31;20450;-71
2022/04/04 00:10:51;;;;;;;14.55;8.57;;;;;;;-2.23;82.17;100771.84;4517658;31;20477;-71
2022/04/04 00:13:19;;;;;;;13.85;8.73;;;;;;;-2.17;81.78;100763.50;4517721;31;20141;-71
2022/04/04 00:15:47;;;;;;;13.65;9.13;;;;;;;-2.15;81.95;100767.06;4502807;31;20504;-71
2022/04/04 00:18:15;;;;;;;13.07;9.00;;;;;;;-2.19;82.37;100775.44;4517777;31;20551;-71
2022/04/04 00:20:42;;;;;;;14.93;9.60;;;;;;;-2.26;82.98;100770.81;4502550;31;20134;-71
2022/04/04 00:23:12;;;;;;;12.37;8.30;;;;;;;-2.36;82.69;100766.97;4517519;31;20963;-71
2022/04/04 00:25:41;;;;;;;12.10;8.98;;;;;;;-2.42;82.19;100767.53;4517746;31;20095;-71
2022/04/04 00:28:09;;;;;;;14.93;9.77;;;;;;;-2.45;81.88;100771.69;4517566;31;20122;-71
2022/04/04 00:30:36;;;;;;;15.20;8.73;;;;;;;-2.44;82.50;100764.03;4517557;31;20167;-71
2022/04/04 00:33:05;;;;;;;18.00;10.18;;;;;;;-2.38;83.25;100767.69;4517398;31;20099;-71
2022/04/04 00:35:33;;;;;;;16.37;11.07;;;;;;;-2.37;83.67;100767.75;4517401;31;20109;-71
2022/04/04 00:38:02;;;;;;;19.80;12.05;;;;;;;-2.37;84.11;100772.03;4516943;31;20414;-71
2022/04/04 00:40:30;;;;;;;20.00;11.60;;;;;;;-2.47;84.64;100771.63;4517327;31;20121;-71
2022/04/04 00:42:57;;;;;;;22.17;12.70;;;;;;;-2.52;85.26;100773.09;4517330;31;20157;-71
2022/04/04 00:45:25;;;;;;;15.50;10.30;;;;;;;-2.56;85.35;100771.19;4517375;31;20106;-72
2022/04/04 00:47:52;;;;;;;19.10;10.73;;;;;;;-2.54;85.74;100771.28;4517201;31;20174;-71
2022/04/04 00:50:20;;;;;;;16.77;10.60;;;;;;;-2.56;85.60;100766.03;4517177;31;20099;-71
2022/04/04 00:52:47;;;;;;;16.87;9.82;;;;;;;-2.59;85.09;100768.44;4517252;31;20095;-71
2022/04/04 00:55:15;;;;;;;12.30;9.25;;;;;;;-2.61;84.61;100764.94;4517069;31;20484;-71
2022/04/04 00:57:42;;;;;;;13.80;8.68;;;;;;;-2.58;84.72;100766.75;4517295;31;20095;-71
2022/04/04 01:00:11;;;;;;;16.87;9.05;;;;;;;-2.59;86.24;100759.84;4517109;31;20130;-71
2022/04/04 01:02:39;;;;;;;13.13;9.10;;;;;;;-2.59;85.64;100767.56;4517233;31;20206;-71
2022/04/04 01:05:09;;;;;;;12.77;9.00;;;;;;;-2.59;84.80;100765.87;4517076;31;20130;-71
2022/04/04 01:07:40;;;;;;;15.70;8.57;;;;;;;-2.60;84.68;100766.69;4517000;31;20150;-71
2022/04/04 01:10:11;;;;;;;12.30;7.97;;;;;;;-2.63;84.92;100763.97;4517117;31;20544;-71
2022/04/04 01:12:50;;;;;;;12.88;8.52;;;;;;;-2.63;84.90;100773.41;4517053;31;20122;-71
2022/04/04 01:15:18;;;;;;;17.52;8.70;;;;;;;-2.64;84.94;100769.94;4516871;31;20095;-71
2022/04/04 01:17:46;;;;;;;13.95;8.63;;;;;;;-2.70;85.10;100764.50;4516705;31;20435;-72
2022/04/04 01:20:14;;;;;;;14.90;9.23;;;;;;;-2.68;84.96;100761.19;4517000;31;20099;-72
2022/04/04 01:22:51;;;;;;;16.45;9.25;;;;;;;-2.62;84.76;100765.72;4516943;31;20084;-72
2022/04/04 01:25:30;;;;;;;15.40;9.63;;;;;;;-2.61;84.63;100758.91;4516955;31;20088;-72
2022/04/04 01:27:59;;;;;;;21.23;9.57;;;;;;;-2.57;84.48;100773.69;4516910;31;20105;-72
2022/04/04 01:30:27;;;;;;;12.37;8.82;;;;;;;-2.57;84.52;100768.53;4516666;31;20092;-72
2022/04/04 01:32:54;;;;;;;16.00;8.45;;;;;;;-2.55;84.60;100767.78;4516612;31;20091;-72
2022/04/04 01:35:23;;;;;;;16.70;9.50;;;;;;;-2.54;84.96;100773.84;4516403;31;20143;-72
2022/04/04 01:37:50;;;;;;;14.27;9.32;;;;;;;-2.53;85.35;100773.03;4516562;31;20118;-72
2022/04/04 01:40:18;;;;;;;17.42;9.93;;;;;;;-2.49;85.44;100774.94;4516428;31;20142;-72
2022/04/04 01:42:52;;;;;;;19.27;9.57;;;;;;;-2.45;85.37;100776.84;4516522;31;20111;-72
2022/04/04 01:46:23;;;;;;;14.05;8.50;;;;;;;-2.48;85.59;100769.84;4516468;31;20099;-72
2022/04/04 01:48:09;;;;;;;13.75;9.00;;;;;;;-2.54;85.66;100779.87;4516339;31;20091;-72
2022/04/04 01:50:37;;;;;;;14.63;8.93;;;;;;;-2.55;86.12;100775.53;4517822;31;20419;-72
2022/04/04 01:55:51;;;;;;;14.98;9.20;;;;;;;-2.57;86.60;100773.69;4518485;31;20610;-72
2022/04/04 01:58:19;;;;;;;17.65;8.98;;;;;;;-2.59;86.78;100773.63;4518518;31;20710;-72
2022/04/04 02:00:47;;;;;;;16.00;9.00;;;;;;;-2.67;86.67;100775.84;4518352;31;20168;-72
2022/04/04 02:03:14;;;;;;;18.95;9.52;;;;;;;-2.72;87.05;100771.25;4518454;31;20510;-71
2022/04/04 02:05:42;;;;;;;15.57;9.43;;;;;;;-2.68;86.97;100775.78;4518469;31;20431;-71
2022/04/04 02:08:09;;;;;;;18.55;10.07;;;;;;;-2.73;86.78;100772.06;4518543;31;20536;-71
2022/04/04 02:10:36;;;;;;;19.35;10.10;;;;;;;-2.74;86.76;100775.47;4518573;31;20452;-71
2022/04/04 02:13:03;;;;;;;17.58;10.55;;;;;;;-2.79;86.93;100772.69;4518454;31;20155;-71
2022/04/04 02:15:30;;;;;;;16.45;10.00;;;;;;;-2.81;87.07;100765.69;4518452;31;20088;-72
2022/04/04 02:17:58;;;;;;;17.17;10.13;;;;;;;-2.86;86.72;100762.87;4518386;31;20109;-72
2022/04/04 02:20:25;;;;;;;19.10;10.07;;;;;;;-2.92;86.19;100760.88;4518323;31;20162;-72
2022/04/04 02:22:53;;;;;;;16.50;9.73;;;;;;;-2.92;86.21;100771.19;4518369;31;20566;-72
2022/04/04 02:25:20;;;;;;;18.25;9.57;;;;;;;-2.89;85.84;100770.47;4518280;31;20127;-72
2022/04/04 02:27:48;;;;;;;16.50;9.93;;;;;;;-2.89;85.75;100762.75;4518376;31;20444;-72
2022/04/04 02:30:15;;;;;;;18.67;11.15;;;;;;;-2.93;85.99;100764.28;4518259;31;20500;-72
2022/04/04 02:32:43;;;;;;;24.23;12.57;;;;;;;-2.96;86.10;100760.69;4518325;31;20162;-72
2022/04/04 02:35:10;;;;;;;26.45;11.95;;;;;;;-2.99;86.19;100768.25;4518349;31;20080;-72
2022/04/04 02:37:37;;;;;;;28.83;13.32;;;;;;;-3.05;86.63;100767.94;4518111;31;20083;-72
2022/04/04 02:40:05;;;;;;;32.00;13.82;;;;;;;-3.03;86.50;100772.37;4518292;31;20087;-72
2022/04/04 02:42:32;;;;;;;30.50;12.48;;;;;;;-3.16;87.64;100772.59;4518223;31;20095;-72
2022/04/04 02:45:02;;;;;;;31.33;14.35;;;;;;;-3.24;88.74;100768.75;4518214;31;20150;-72
2022/04/04 02:47:29;;;;;;;22.52;12.68;;;;;;;-3.38;89.83;100768.94;4503487;31;20088;-72
2022/04/04 02:49:57;;;;;;;20.45;11.38;;;;;;;-3.60;92.20;100773.81;4517962;31;20088;-72
2022/04/04 02:52:24;;;;;;;18.83;10.25;;;;;;;-3.69;92.51;100774.22;4518107;31;20130;-72
2022/04/04 02:54:51;;;;;;;16.60;10.57;;;;;;;-3.70;92.09;100772.47;4518336;31;20147;-72
2022/04/04 02:57:18;;;;;;;16.65;9.55;;;;;;;-3.76;92.11;100773.84;4517966;31;20442;-72
2022/04/04 02:59:45;;;;;;;20.62;9.85;;;;;;;-3.76;92.16;100779.87;4518121;31;20148;-72
2022/04/04 03:02:13;;;;;;;18.23;9.18;;;;;;;-3.66;91.61;100776.09;4517940;31;20095;-72
2022/04/04 03:04:42;;;;;;;18.58;10.18;;;;;;;-3.54;90.41;100780.97;4503436;31;20084;-72
2022/04/04 03:07:09;;;;;;;15.35;9.80;;;;;;;-3.48;89.46;100777.00;4503122;31;20087;-72
2022/04/04 03:09:37;;;;;;;11.43;8.13;;;;;;;-3.41;88.10;100779.09;4518300;31;20471;-72
2022/04/04 03:12:06;;;;;;;13.48;8.50;;;;;;;-3.37;87.37;100783.59;4517991;31;20443;-72
2022/04/04 03:14:34;;;;;;;12.48;8.23;;;;;;;-3.34;86.91;100780.28;4517895;31;20414;-72
2022/04/04 03:17:01;;;;;;;11.20;7.75;;;;;;;-3.28;86.17;100780.59;4517840;31;20806;-72
2022/04/04 03:19:29;;;;;;;15.35;7.97;;;;;;;-3.38;85.99;100784.41;4518183;31;20126;-72
2022/04/04 03:21:57;;;;;;;14.13;8.23;;;;;;;-3.40;86.16;100783.44;4517913;31;20099;-72
2022/04/04 03:24:25;;;;;;;14.90;8.25;;;;;;;-3.32;85.83;100780.34;4517922;31;20791;-72
2022/04/04 03:26:52;;;;;;;14.77;7.72;;;;;;;-3.26;85.02;100780.66;4517827;31;20095;-72
2022/04/04 03:29:19;;;;;;;10.02;7.43;;;;;;;-3.19;83.85;100782.72;4517956;31;20425;-72
2022/04/04 03:31:47;;;;;;;22.20;8.13;;;;;;;-3.16;83.34;100788.03;4517863;31;20125;-72
2022/04/04 03:34:14;;;;;;;15.60;8.57;;;;;;;-3.20;83.29;100781.84;4517882;31;20088;-72
2022/04/04 03:36:41;;;;;;;13.48;7.43;;;;;;;-3.23;84.10;100786.84;4517797;31;20420;-72
2022/04/04 03:39:12;;;;;;;13.88;8.05;;;;;;;-3.25;83.94;100785.91;4517712;31;20111;-72
2022/04/04 03:41:39;;;;;;;14.95;8.98;;;;;;;-3.26;83.52;100785.81;4517827;31;20173;-72
2022/04/04 03:44:07;;;;;;;14.30;8.05;;;;;;;-3.29;83.48;100778.81;4517921;31;20581;-72
2022/04/04 03:46:34;;;;;;;15.68;8.07;;;;;;;-3.25;83.12;100795.31;4518099;31;20166;-72
2022/04/04 03:49:01;;;;;;;14.75;8.15;;;;;;;-3.27;83.05;100786.63;4517715;31;20091;-72
2022/04/04 03:51:28;;;;;;;18.50;8.45;;;;;;;-3.22;82.76;100796.34;4517815;31;20107;-72
2022/04/04 03:53:56;;;;;;;13.48;8.07;;;;;;;-3.17;82.16;100787.16;4517533;31;20095;-72
2022/04/04 03:56:23;;;;;;;16.90;8.70;;;;;;;-3.19;82.12;100782.72;4517990;31;20108;-72
2022/04/04 03:58:53;;;;;;;18.85;8.48;;;;;;;-3.19;81.88;100787.88;4517514;31;20152;-72
2022/04/04 04:01:20;;;;;;;14.27;7.90;;;;;;;-3.11;81.50;100789.16;4517698;31;20379;-72
2022/04/04 04:03:48;;;;;;;14.05;8.40;;;;;;;-3.10;81.57;100792.63;4517558;31;20121;-72
2022/04/04 04:06:16;;;;;;;13.25;7.90;;;;;;;-3.08;80.86;100794.44;4517603;31;20087;-72
2022/04/04 04:08:45;;;;;;;19.45;6.75;;;;;;;-3.02;80.37;100794.75;4517332;31;20207;-72
2022/04/04 04:11:15;;;;;;;11.45;7.60;;;;;;;-3.12;80.39;100792.53;4502651;31;20164;-72
2022/04/04 04:13:44;;;;;;;21.08;6.97;;;;;;;-3.14;80.65;100799.34;4516153;31;20512;-72
2022/04/04 04:16:13;;;;;;;13.65;7.03;;;;;;;-3.02;79.23;100805.06;4503433;31;20112;-72
2022/04/04 04:18:41;;;;;;;14.38;7.10;;;;;;;-3.05;79.14;100794.59;4501531;31;20084;-72
2022/04/04 04:21:11;;;;;;;12.20;6.80;;;;;;;-2.98;78.58;100796.69;4501669;31;20130;-71
2022/04/04 04:23:43;;;;;;;10.40;6.87;;;;;;;-2.87;77.58;100794.62;4515136;31;20109;-72
2022/04/04 04:26:13;;;;;;;13.95;6.57;;;;;;;-2.89;77.43;100798.84;4514073;31;20115;-72
2022/04/04 04:28:44;;;;;;;12.57;6.50;;;;;;;-2.83;76.98;100793.06;4508350;31;20091;-72
2022/04/04 04:31:12;;;;;;;11.93;6.55;;;;;;;-2.76;76.55;100792.56;4502660;31;20137;-72
2022/04/04 04:33:39;;;;;;;12.43;6.00;;;;;;;-2.73;76.06;100792.72;4505819;31;20457;-72
2022/04/04 04:36:07;;;;;;;16.25;6.28;;;;;;;-2.78;76.43;100795.06;4510134;31;20139;-72
2022/04/04 04:38:34;;;;;;;12.18;5.90;;;;;;;-2.76;76.40;100800.28;4513300;31;20102;-72
2022/04/04 04:41:02;;;;;;;12.02;6.85;;;;;;;-2.75;76.44;100804.66;4507820;31;20129;-72
2022/04/04 04:43:29;;;;;;;9.30;6.28;;;;;;;-2.72;75.90;100797.03;4518079;31;20753;-72
2022/04/04 04:45:56;;;;;;;15.60;6.68;;;;;;;-2.72;76.01;100804.78;4517799;31;20423;-72
2022/04/04 04:48:23;;;;;;;18.05;7.00;;;;;;;-2.68;75.61;100805.03;4517033;31;20091;-72
2022/04/04 04:50:51;;;;;;;9.85;6.65;;;;;;;-2.62;75.33;100801.84;4517136;31;20434;-72
2022/04/04 04:53:18;;;;;;;13.35;6.80;;;;;;;-2.58;75.31;100808.03;4516829;31;20418;-72
2022/04/04 04:55:46;;;;;;;12.27;5.78;;;;;;;-2.52;74.71;100813.50;4517024;31;20083;-72
2022/04/04 04:58:13;;;;;;;10.75;6.15;;;;;;;-2.49;74.58;100806.78;4516888;31;20121;-72
2022/04/04 05:00:41;;;;;;;12.48;6.90;;;;;;;-2.42;74.60;100808.84;4516928;31;20095;-72
2022/04/04 05:03:26;;;;;;;14.98;6.30;;;;;;;-2.32;74.38;100817.03;4516933;31;20178;-72
2022/04/04 05:05:54;;;;;;;12.35;6.57;;;;;;;-2.26;74.57;100817.28;4502945;31;20784;-72
2022/04/04 05:08:21;;;;;;;17.02;6.18;;;;;;;-2.10;73.92;100817.19;4507800;31;20430;-72
2022/04/04 05:10:48;;;;;;;16.35;6.65;;;;;;;-2.02;73.16;100814.94;4503402;31;20179;-72
2022/04/04 05:13:17;;;;;;;23.95;10.05;;;;;;;-1.90;73.12;100817.22;4509131;31;20183;-72
2022/04/04 05:15:45;;;;;;;29.45;13.02;;;;;;;-1.83;75.29;100814.97;4506422;31;20459;-72
2022/04/04 05:18:12;;;;;;;25.75;14.07;;;;;;;-1.77;77.44;100822.09;4506757;31;20143;-72
2022/04/04 05:20:40;;;;;;;35.25;15.10;;;;;;;-1.74;78.23;100820.53;4508382;31;20100;-72
2022/04/04 05:23:07;;;;;;;36.78;14.93;;;;;;;-1.66;78.48;100828.66;4506712;31;20500;-72
2022/04/04 05:25:34;;;;;;;37.85;13.88;;;;;;;-1.58;79.60;100835.03;4514083;31;20091;-72
2022/04/04 05:28:01;;;;;;;32.13;12.45;;;;;;;-1.50;77.93;100832.78;4518456;31;20982;-72
2022/04/04 05:30:28;;;;;;;29.27;15.68;;;;;;;-1.35;77.36;100829.97;4512489;31;20159;-72
2022/04/04 05:32:55;;;;;;;20.80;10.90;;;;;;;-1.18;74.67;100826.41;4512153;31;20099;-71
2022/04/04 05:35:23;;;;;;;22.80;12.32;;;;;;;-1.08;73.80;100830.28;4509280;31;20166;-71
2022/04/04 05:37:54;;;;;;;34.58;13.62;;;;;;;-1.03;73.08;100833.91;4508700;31;20152;-72
2022/04/04 05:40:25;;;;;;;34.50;15.80;;;;;;;-0.98;72.01;100830.72;4513090;31;20103;-71
2022/04/04 05:42:54;;;;;;;40.05;15.45;;;;;;;-0.84;72.79;100838.19;4509781;31;20155;-71
2022/04/04 05:45:22;;;;;;;31.27;15.20;;;;;;;-0.77;72.00;100838.50;4501964;31;20079;-72
2022/04/04 05:47:49;;;;;;;35.08;15.63;;;;;;;-0.71;72.51;100837.84;4514338;31;20103;-72
2022/04/04 05:50:16;;;;;;;28.17;14.20;;;;;;;-0.62;71.88;100845.09;4518159;31;20122;-71
2022/04/04 05:52:44;;;;;;;31.98;16.30;;;;;;;-0.60;71.69;100841.75;4517917;31;20080;-72
2022/04/04 05:55:11;;;;;;;28.40;14.38;;;;;;;-0.55;71.29;100844.53;4517737;31;20091;-72
2022/04/04 05:57:39;;;;;;;28.70;13.90;;;;;;;-0.46;71.18;100842.28;4516742;31;20143;-72
2022/04/04 06:00:11;;;;;;;35.00;14.27;;;;;;;-0.37;70.66;100841.78;4508167;31;20156;-72
2022/04/04 06:02:38;;;;;;;37.65;13.27;;;;;;;-0.25;70.30;100840.56;4501938;31;20126;-72
2022/04/04 06:05:06;;;;;;;29.42;13.65;;;;;;;-0.13;70.72;100847.94;4502197;31;20088;-72
2022/04/04 06:07:35;;;;;;;26.23;12.93;;;;;;;-0.04;69.98;100852.56;4510580;31;20469;-72
2022/04/04 06:10:04;;;;;;;35.05;13.05;;;;;;;0.06;69.69;100856.38;4516731;31;20099;-73
2022/04/04 06:12:34;;;;;;;28.80;13.75;;;;;;;0.17;69.50;100861.16;4516007;31;20156;-72
2022/04/04 06:15:01;;;;;;;32.70;14.75;;;;;;;0.15;68.75;100861.94;4500321;31;20641;-72
2022/04/04 06:17:28;;;;;;;34.55;14.50;;;;;;;0.23;69.95;100863.09;4501113;31;20108;-71
2022/04/04 06:19:56;;;;;;;27.70;13.80;;;;;;;0.23;69.27;100866.56;4501711;31;20100;-71
2022/04/04 06:22:23;;;;;;;26.20;14.23;;;;;;;0.38;69.78;100862.78;4501554;31;20144;-72
2022/04/04 06:24:51;;;;;;;24.42;14.40;;;;;;;0.38;69.63;100874.03;4502412;31;20541;-72
2022/04/04 06:27:18;;;;;;;29.98;14.68;;;;;;;0.43;71.01;100872.50;4501880;31;20103;-72
2022/04/04 06:29:46;;;;;;;21.27;12.43;;;;;;;0.53;70.26;100875.41;4501861;31;20107;-71
2022/04/04 06:32:14;;;;;;;23.00;11.45;;;;;;;0.59;71.44;100875.62;4502106;31;20474;-71
2022/04/04 06:34:41;;;;;;;15.90;10.30;;;;;;;0.60;68.47;100870.53;4501797;31;20104;-72
2022/04/04 06:37:10;;;;;;;22.10;12.40;;;;;;;0.69;67.85;100876.03;4501183;31;20095;-72
2022/04/04 06:39:37;;;;;;;18.15;9.63;;;;;;;0.77;66.79;100876.28;4503007;31;20084;-72
2022/04/04 06:42:04;;;;;;;18.05;10.57;;;;;;;0.90;67.06;100872.44;4502889;31;20753;-73
2022/04/04 06:44:32;;;;;;;26.67;9.65;;;;;;;0.92;66.42;100875.97;4501731;31;20100;-73
2022/04/04 06:46:59;;;;;;;18.77;9.65;;;;;;;0.97;65.62;100878.72;4502153;31;20106;-73
2022/04/04 06:49:27;;;;;;;22.92;10.95;;;;;;;1.08;66.09;100869.59;4501382;31;20460;-72
2022/04/04 06:51:55;;;;;;;21.55;10.50;;;;;;;1.10;65.95;100878.31;4501776;31;20096;-74
2022/04/04 06:54:22;;;;;;;16.27;8.73;;;;;;;1.14;65.46;100877.59;4502759;31;20088;-74
2022/04/04 06:56:50;;;;;;;23.42;10.63;;;;;;;1.21;65.95;100881.28;4502674;31;20481;-73
2022/04/04 06:59:17;;;;;;;21.62;10.70;;;;;;;1.42;66.90;100876.81;4502385;31;20407;-73
2022/04/04 07:01:45;;;;;;;16.65;8.95;;;;;;;1.60;64.56;100879.12;4502738;31;20099;-72
2022/04/04 07:04:12;;;;;;;14.13;7.72;;;;;;;1.62;62.65;100880.91;4502762;31;20096;-73
2022/04/04 07:06:39;;;;;;;13.30;7.53;;;;;;;1.62;61.26;100867.03;4502707;31;20103;-73
2022/04/04 07:09:08;;;;;;;13.73;8.02;;;;;;;1.78;61.46;100878.81;4503049;31;20092;-71
2022/04/04 07:11:35;;;;;;;19.23;8.25;;;;;;;1.97;60.13;100869.88;4502589;31;20151;-72
2022/04/04 07:14:02;;;;;;;16.62;9.02;;;;;;;2.05;61.76;100874.47;4502717;31;20088;-73
2022/04/04 07:16:31;;;;;;;16.75;8.18;;;;;;;2.07;62.67;100877.09;4502593;31;20180;-73
2022/04/04 07:18:58;;;;;;;15.70;7.87;;;;;;;2.13;61.34;100878.19;4502595;31;20738;-72
2022/04/04 07:21:25;;;;;;;15.48;8.30;;;;;;;2.34;61.64;100870.13;4501959;31;20800;-73
2022/04/04 07:23:52;;;;;;;13.45;6.07;;;;;;;2.57;59.99;100870.78;4501640;31;20076;-73
2022/04/04 07:26:21;;;;;;;10.82;6.97;;;;;;;2.58;55.81;100864.75;4501332;31;20092;-73
2022/04/04 07:28:49;;;;;;;11.02;6.20;;;;;;;2.67;57.82;100866.72;4502319;31;20096;-74
2022/04/04 07:31:17;;;;;;;10.73;5.50;;;;;;;2.84;55.95;100854.19;4502712;31;20774;-73
2022/04/04 07:33:44;;;;;;;11.20;5.87;;;;;;;2.92;52.94;100860.47;4502691;31;20111;-73
2022/04/04 07:36:11;;;;;;;9.02;5.75;;;;;;;3.00;54.38;100865.88;4502589;31;20122;-73
2022/04/04 07:38:39;;;;;;;7.45;5.25;;;;;;;3.07;53.28;100858.28;4502653;31;20111;-73
2022/04/04 07:41:06;;;;;;;8.88;5.07;;;;;;;3.16;52.15;100865.44;4502427;31;20668;-74
2022/04/04 07:43:33;;;;;;;12.70;5.10;;;;;;;3.30;53.83;100864.06;4502208;31;20782;-75
2022/04/04 07:46:01;;;;;;;9.23;5.85;;;;;;;3.30;50.73;100861.47;4487543;31;20156;-74
2022/04/04 07:48:29;;;;;;;11.27;5.35;;;;;;;3.37;53.75;100861.63;4501278;31;20160;-73
2022/04/04 07:50:56;;;;;;;7.35;5.30;;;;;;;3.56;51.03;100862.09;4502394;31;20079;-73
2022/04/04 07:53:23;;;;;;;4.53;4.00;;;;;;;3.56;49.08;100863.81;4502371;31;20092;-73
2022/04/04 07:55:50;;;;;;;7.25;4.30;;;;;;;3.63;45.74;100863.13;4502503;31;20410;-72
2022/04/04 07:58:17;;;;;;;7.32;4.20;;;;;;;3.66;46.85;100863.19;4502125;31;20743;-71
2022/04/04 08:00:46;;;;;;;7.65;3.95;;;;;;;3.82;47.63;100867.06;4501873;31;20087;-72
2022/04/04 08:03:13;;;;;;;4.75;3.45;;;;;;;3.88;47.34;100863.69;4501757;31;20084;-72
2022/04/04 08:05:40;;;;;;;5.53;3.50;;;;;;;3.99;44.07;100865.72;4500569;31;20466;-73
2022/04/04 08:08:07;;;;;;;6.53;3.95;;;;;;;3.98;43.99;100863.94;4510791;31;20503;-73
2022/04/04 08:10:35;;;;;;;4.68;3.45;;;;;;;4.03;44.79;100861.44;4507013;31;20170;-72
2022/04/04 08:13:02;;;;;;;17.10;6.95;;;;;;;4.08;43.10;100857.22;4508445;31;20121;-73
2022/04/04 08:15:30;;;;;;;8.52;4.70;;;;;;;4.09;42.67;100856.34;4509420;31;20152;-73
2022/04/04 08:17:57;;;;;;;5.28;3.45;;;;;;;4.19;43.11;100858.31;4502101;31;20160;-71
2022/04/04 08:20:27;;;;;;;5.40;3.78;;;;;;;4.19;42.29;100865.25;4502210;31;20080;-71
2022/04/04 08:22:57;;;;;;;4.10;3.22;;;;;;;4.18;42.66;100861.78;4502286;31;20115;-71
2022/04/04 08:25:25;;;;;;;5.97;3.75;;;;;;;4.30;44.17;100858.53;4502290;31;20127;-71
2022/04/04 08:27:52;;;;;;;8.23;4.05;;;;;;;4.40;44.66;100863.09;4502165;31;20130;-72
2022/04/04 08:30:19;;;;;;;11.00;3.85;;;;;;;4.45;42.86;100850.16;4502262;31;20107;-72
2022/04/04 08:32:48;;;;;;;6.25;3.70;;;;;;;4.66;45.34;100849.69;4502352;31;20103;-72
2022/04/04 08:35:16;;;;;;;9.77;3.12;;;;;;;4.86;42.54;100850.09;4501965;31;20103;-73
2022/04/04 08:37:45;;;;;;;4.65;3.60;;;;;;;5.12;43.07;100851.44;4502047;31;20092;-72
2022/04/04 08:40:14;;;;;;;4.78;3.67;;;;;;;5.15;44.63;100850.63;4502441;31;20084;-72
2022/04/04 08:42:42;;;;;;;6.55;4.53;;;;;;;5.10;43.87;100857.50;4501878;31;20151;-72
2022/04/04 08:45:09;;;;;;;6.43;4.00;;;;;;;5.19;43.91;100837.63;4502096;31;20083;-72
2022/04/04 08:47:39;;;;;;;4.05;3.30;;;;;;;5.20;42.59;100844.63;4501895;31;20170;-72
2022/04/04 08:50:09;;;;;;;5.55;4.28;;;;;;;5.14;42.49;100836.69;4501595;31;20079;-73
2022/04/04 08:52:37;;;;;;;5.40;4.05;;;;;;;5.27;46.17;100850.84;4501835;31;20537;-73
2022/04/04 08:55:05;;;;;;;6.82;4.47;;;;;;;5.19;42.67;100827.16;4501870;31;20087;-73
2022/04/04 08:57:32;;;;;;;10.10;5.43;;;;;;;5.57;43.42;100824.31;4501677;31;20083;-72
2022/04/04 08:59:59;;;;;;;7.00;4.90;;;;;;;5.79;41.64;100822.03;4501290;31;20118;-72
2022/04/04 09:02:27;;;;;;;5.78;4.07;;;;;;;5.63;44.07;100818.31;4501936;31;20103;-71
2022/04/04 09:05:05;;;;;;;7.55;4.60;;;;;;;5.44;44.71;100819.75;4501260;31;20100;-72
2022/04/04 09:07:33;;;;;;;5.68;4.18;;;;;;;5.62;42.54;100822.66;4501397;31;20087;-72
2022/04/04 09:10:00;;;;;;;7.85;4.22;;;;;;;6.06;41.88;100808.50;4500897;31;20155;-74
2022/04/04 09:12:27;;;;;;;6.10;4.32;;;;;;;6.23;42.22;100807.84;4500894;31;20725;-73
2022/04/04 09:14:57;;;;;;;7.20;4.37;;;;;;;6.07;44.21;100805.88;4504739;31;20498;-73
2022/04/04 09:17:30;;;;;;;8.88;4.95;;;;;;;6.07;44.08;100791.94;4517370;31;20478;-72
2022/04/04 09:19:58;;;;;;;9.48;4.95;;;;;;;6.23;45.31;100791.28;4517185;31;20143;-72
2022/04/04 09:22:26;;;;;;;4.85;4.10;;;;;;;6.45;44.31;100790.66;4517264;31;20495;-72
2022/04/04 09:25:02;;;;;;;5.93;4.53;;;;;;;6.66;42.54;100792.63;4517138;31;20215;-72
2022/04/04 09:27:31;;;;;;;6.00;4.25;;;;;;;6.95;40.74;100787.66;4517386;31;20178;-72
2022/04/04 09:30:00;;;;;;;4.72;4.00;;;;;;;6.92;43.11;100784.16;4513214;31;20088;-73
2022/04/04 09:32:41;;;;;;;13.70;5.75;;;;;;;7.26;41.17;100784.47;4501582;31;20155;-72
2022/04/04 09:35:13;;;;;;;4.50;4.10;;;;;;;7.24;41.11;100786.16;4501206;31;20179;-71
2022/04/04 09:37:45;;;;;;;4.28;3.85;;;;;;;7.51;43.14;100769.78;4500800;31;20099;-71
2022/04/04 09:40:27;;;;;;;4.35;3.95;;;;;;;7.79;39.82;100779.56;4507792;31;20091;-72
2022/04/04 09:42:59;;;;;;;8.65;4.40;;;;;;;7.69;39.88;100769.91;4508319;31;20076;-72
2022/04/04 09:45:31;;;;;;;8.32;4.25;;;;;;;7.49;38.52;100771.50;4501076;31;20104;-72
2022/04/04 09:48:03;;;;;;;9.38;4.10;;;;;;;6.98;41.12;100772.84;4500779;31;20126;-72
2022/04/04 09:50:46;;;;;;;5.87;4.30;;;;;;;6.66;41.44;100766.44;4500475;31;20486;-71
2022/04/04 09:53:32;;;;;;;6.53;4.30;;;;;;;6.75;41.81;100754.28;4500805;31;20104;-72
2022/04/04 09:56:04;;;;;;;5.80;4.40;;;;;;;7.17;40.20;100752.06;4500408;31;20180;-72
2022/04/04 09:58:31;;;;;;;4.75;4.05;;;;;;;7.24;41.64;100762.59;4500864;31;20431;-72
2022/04/04 10:01:00;;;;;;;7.07;4.28;;;;;;;7.61;41.16;100751.50;4505769;31;20163;-71
2022/04/04 10:03:31;;;;;;;9.45;3.83;;;;;;;7.56;40.20;100747.97;4516560;31;20083;-71
2022/04/04 10:06:16;;;;;;;4.95;4.28;;;;;;;7.16;40.68;100737.19;4500737;31;20765;-71
2022/04/04 10:08:45;;;;;;;5.00;3.80;;;;;;;7.22;41.84;100740.75;4500813;31;20155;-71
2022/04/04 10:11:13;;;;;;;6.05;4.10;;;;;;;7.10;41.03;100747.66;4501655;31;20671;-71
2022/04/04 10:13:41;;;;;;;5.12;3.80;;;;;;;7.28;40.10;100725.03;4503072;31;20095;-71
2022/04/04 10:16:11;;;;;;;5.93;3.70;;;;;;;7.55;39.93;100719.09;4514565;31;20126;-71
2022/04/04 10:18:43;;;;;;;5.70;3.83;;;;;;;8.12;39.63;100721.13;4518434;31;20099;-70
2022/04/04 10:21:11;;;;;;;6.62;4.30;;;;;;;8.34;40.07;100722.09;4518967;31;20209;-71
2022/04/04 10:23:41;;;;;;;8.48;3.95;;;;;;;7.58;39.63;100725.25;4491211;31;20088;-71
2022/04/04 10:26:08;;;;;;;6.87;4.45;;;;;;;7.14;40.86;100735.44;4518827;31;20142;-71
2022/04/04 10:28:41;;;;;;;9.70;4.43;;;;;;;7.08;41.50;100727.53;4518961;31;20162;-72
2022/04/04 10:31:20;;;;;;;10.52;4.12;;;;;;;7.10;39.87;100713.59;4519016;31;20131;-72
2022/04/04 10:33:53;;;;;;;6.40;3.62;;;;;;;7.23;40.47;100713.66;4495972;31;20100;-71
2022/04/04 10:36:23;;;;;;;3.95;3.55;;;;;;;7.04;40.01;100731.00;4502502;31;20163;-71
2022/04/04 10:38:54;;;;;;;6.35;4.47;;;;;;;7.08;41.33;100717.94;4502844;31;20134;-71
2022/04/04 10:41:32;;;;;;;5.28;4.35;;;;;;;7.02;42.18;100720.50;4502520;31;20076;-73
2022/04/04 10:44:00;;;;;;;6.55;3.80;;;;;;;7.75;41.59;100706.12;4502549;31;20151;-72
2022/04/04 10:46:28;;;;;;;4.47;3.83;;;;;;;7.53;40.97;100699.88;4502420;31;20799;-72
2022/04/04 10:49:06;;;;;;;9.05;5.47;;;;;;;7.76;40.91;100697.38;4502309;31;20158;-72
2022/04/04 10:51:36;;;;;;;10.32;6.05;;;;;;;7.87;43.59;100690.41;4502698;31;20124;-72
2022/04/04 10:54:05;;;;;;;4.85;3.65;;;;;;;8.34;42.15;100697.59;4502661;31;20100;-72
2022/04/04 10:56:37;;;;;;;3.97;3.53;;;;;;;8.04;37.99;100693.09;4502347;31;20739;-71
2022/04/04 10:59:20;;;;;;;4.95;3.80;;;;;;;7.77;38.34;100688.63;4502880;31;20900;-71
2022/04/04 11:01:51;;;;;;;10.38;5.37;;;;;;;7.87;39.92;100688.66;4502341;31;20088;-72
2022/04/04 11:04:27;;;;;;;7.97;5.62;;;;;;;7.57;43.26;100685.91;4502641;31;20117;-72
2022/04/04 11:10:06;;;;;;;6.47;5.33;;;;;;;7.21;45.10;100670.81;4502639;31;20091;-71
2022/04/04 11:12:55;;;;;;;7.72;5.68;;;;;;;7.44;46.15;100679.72;4502916;31;20171;-71
2022/04/04 11:15:43;;;;;;;10.77;5.05;;;;;;;7.60;45.89;100667.59;4487555;31;20706;-70
2022/04/04 11:18:12;;;;;;;10.57;5.62;;;;;;;7.89;44.25;100668.56;4500204;31;20119;-70
2022/04/04 11:20:59;;;;;;;8.95;6.15;;;;;;;7.97;44.25;100676.47;4500679;31;20104;-71
2022/04/04 11:23:33;;;;;;;7.32;5.68;;;;;;;7.90;45.65;100669.44;4500540;31;20696;-70
2022/04/04 11:26:04;;;;;;;7.47;5.00;;;;;;;7.24;44.69;100679.59;4500941;31;20132;-70
2022/04/04 11:28:36;;;;;;;10.35;5.50;;;;;;;6.90;45.00;100673.25;4505554;31;20720;-70
2022/04/04 11:31:10;;;;;;;7.20;4.90;;;;;;;6.74;46.50;100668.75;4516257;31;20103;-70
2022/04/04 11:33:48;;;;;;;8.75;5.10;;;;;;;6.84;45.05;100670.56;4506934;31;20499;-70
2022/04/04 11:36:27;;;;;;;8.32;5.12;;;;;;;6.65;45.63;100667.81;4503952;31;20418;-70